Time;durP1;ratioP1;P1;durP2;ratioP2;P2;SDS_P1;SDS_P2;PMS_P1;PMS_P2;Temp;Humidity;BMP_temperature;BMP_pressure;BME280_temperature;BME280_humidity;BME280_pressure;Samples;Min_cycle;Max_cycle;Signal;HPM_P1;HPM_P2
2022/02/08 00:02:10;;;;;;;4.13;1.58;;;4.20;79.70;;;;;;4984406;28;20480;-69
2022/02/08 00:04:41;;;;;;;2.17;0.82;;;4.20;79.80;;;;;;4985514;28;20112;-70
2022/02/08 00:07:10;;;;;;;2.22;1.05;;;4.20;79.70;;;;;;4984243;28;20382;-70
2022/02/08 00:09:44;;;;;;;3.33;1.13;;;4.20;79.60;;;;;;4984357;28;20480;-69
2022/02/08 00:12:11;;;;;;;2.30;0.80;;;4.20;79.40;;;;;;4986663;28;20057;-69
2022/02/08 00:14:38;;;;;;;4.93;1.17;;;4.20;79.30;;;;;;4988176;28;20567;-69
2022/02/08 00:17:05;;;;;;;5.45;0.98;;;4.20;79.40;;;;;;4989565;28;20069;-70
2022/02/08 00:19:32;;;;;;;3.63;1.75;;;4.30;79.40;;;;;;4986102;28;20069;-71
2022/02/08 00:21:59;;;;;;;3.00;1.42;;;4.20;79.40;;;;;;4987691;28;20061;-70
2022/02/08 00:24:26;;;;;;;2.65;1.00;;;4.30;79.30;;;;;;4988568;28;20049;-70
2022/02/08 00:26:54;;;;;;;4.68;1.50;;;4.30;79.30;;;;;;4991004;28;20045;-68
2022/02/08 00:29:22;;;;;;;2.70;0.88;;;4.30;79.20;;;;;;4991465;28;20050;-69
2022/02/08 00:31:50;;;;;;;4.32;1.08;;;4.30;79.40;;;;;;4992374;28;20468;-70
2022/02/08 00:34:17;;;;;;;6.88;1.77;;;4.30;79.40;;;;;;4991513;28;20166;-69
2022/02/08 00:36:44;;;;;;;3.85;1.05;;;4.30;79.30;;;;;;4990905;28;20132;-68
2022/02/08 00:39:12;;;;;;;2.92;0.75;;;4.30;79.30;;;;;;4934445;28;21447;-68
2022/02/08 00:42:05;;;;;;;2.99;0.50;;;4.30;79.30;;;;;;2299137;28;10150210;-70
2022/02/08 00:44:37;;;;;;;2.45;0.90;;;4.20;79.40;;;;;;3618548;28;10001757;-69
2022/02/08 00:47:17;;;;;;;7.60;0.93;;;4.30;79.40;;;;;;4997469;28;20042;-69
2022/02/08 00:49:44;;;;;;;1.98;0.77;;;4.30;79.50;;;;;;4989798;28;20066;-70
2022/02/08 00:52:15;;;;;;;2.33;0.90;;;4.30;79.40;;;;;;5005545;28;20592;-70
2022/02/08 00:54:43;;;;;;;3.05;0.80;;;4.30;79.30;;;;;;5012107;28;20060;-68
2022/02/08 00:57:12;;;;;;;2.83;0.82;;;4.30;79.40;;;;;;4996108;28;20326;-68
2022/02/08 00:59:39;;;;;;;2.38;0.73;;;4.30;79.30;;;;;;5006276;28;20096;-68
2022/02/08 01:02:07;;;;;;;1.85;0.75;;;4.30;79.20;;;;;;5012837;28;20062;-68
2022/02/08 01:04:35;;;;;;;4.18;0.80;;;4.30;79.20;;;;;;5003805;28;20052;-69
2022/02/08 01:07:02;;;;;;;1.52;0.80;;;4.30;79.20;;;;;;4990598;28;20048;-71
2022/02/08 01:09:41;;;;;;;4.35;1.20;;;4.30;79.10;;;;;;4992009;28;20125;-68
2022/02/08 01:12:09;;;;;;;4.93;0.90;;;4.40;79.00;;;;;;4988822;28;20061;-69
2022/02/08 01:14:40;;;;;;;3.33;1.40;;;4.40;79.00;;;;;;4997054;28;20046;-69
2022/02/08 01:17:10;;;;;;;4.40;0.85;;;4.40;78.90;;;;;;4995100;28;20042;-68
2022/02/08 01:19:43;;;;;;;1.35;0.60;;;4.40;78.90;;;;;;5022597;28;20069;-68
2022/02/08 01:22:17;;;;;;;4.18;0.85;;;4.40;78.90;;;;;;4993786;28;20050;-69
2022/02/08 01:24:45;;;;;;;4.63;0.68;;;4.40;78.80;;;;;;5025516;28;20049;-70
2022/02/08 01:27:13;;;;;;;4.55;0.90;;;4.40;78.90;;;;;;5028216;28;20052;-70
2022/02/08 01:29:53;;;;;;;3.38;0.90;;;4.40;78.80;;;;;;5021489;28;20609;-68
2022/02/08 01:32:36;;;;;;;4.97;0.90;;;4.40;78.80;;;;;;4994811;28;20057;-69
2022/02/08 01:35:22;;;;;;;4.55;0.90;;;4.40;78.80;;;;;;4991819;28;20054;-69
2022/02/08 01:37:55;;;;;;;3.75;0.63;;;4.40;78.90;;;;;;5009005;28;20282;-69
2022/02/08 01:40:30;;;;;;;4.30;0.60;;;4.40;78.90;;;;;;4995209;28;20571;-69
2022/02/08 01:43:32;;;;;;;6.72;0.70;;;4.40;79.00;;;;;;5009891;28;20444;-69
2022/02/08 01:46:05;;;;;;;2.50;0.85;;;4.40;79.00;;;;;;4994121;28;20056;-69
2022/02/08 01:48:45;;;;;;;3.00;1.38;;;4.40;79.20;;;;;;4995161;28;20103;-68
2022/02/08 01:51:12;;;;;;;1.23;0.50;;;4.30;79.30;;;;;;4995383;28;20065;-68
2022/02/08 01:53:39;;;;;;;3.47;0.63;;;4.40;79.40;;;;;;4995525;28;20088;-69
2022/02/08 01:56:07;;;;;;;1.48;0.50;;;4.30;79.50;;;;;;5022559;28;20056;-69
2022/02/08 01:58:36;;;;;;;4.00;1.00;;;4.30;79.50;;;;;;4997248;28;20053;-68
2022/02/08 02:01:19;;;;;;;2.15;0.68;;;4.30;79.50;;;;;;5010227;28;20145;-67
2022/02/08 02:03:46;;;;;;;4.53;1.13;;;4.30;79.50;;;;;;4996642;28;20081;-68
2022/02/08 02:06:13;;;;;;;1.67;0.82;;;4.30;79.60;;;;;;5018793;28;20081;-68
2022/02/08 02:08:40;;;;;;;1.40;0.60;;;4.30;79.70;;;;;;5016826;28;20041;-68
2022/02/08 02:11:10;;;;;;;2.97;0.60;;;4.30;79.70;;;;;;4987597;28;20042;-68
2022/02/08 02:13:43;;;;;;;4.68;1.00;;;4.30;79.70;;;;;;5020435;28;20902;-68
2022/02/08 02:16:18;;;;;;;6.03;0.93;;;4.40;79.70;;;;;;5020531;28;20666;-68
2022/02/08 02:18:46;;;;;;;1.52;0.70;;;4.30;79.70;;;;;;5022157;28;20100;-67
2022/02/08 02:21:16;;;;;;;2.50;0.57;;;4.30;79.70;;;;;;5026400;28;20108;-68
2022/02/08 02:23:47;;;;;;;1.40;0.50;;;4.30;79.70;;;;;;5020951;28;20136;-68
2022/02/08 02:26:20;;;;;;;5.07;1.10;;;4.40;79.60;;;;;;4985341;28;20058;-68
2022/02/08 02:28:47;;;;;;;2.30;0.60;;;4.40;79.50;;;;;;5020503;28;20050;-70
2022/02/08 02:31:17;;;;;;;3.58;1.15;;;4.40;79.40;;;;;;5006836;28;20057;-69
2022/02/08 02:33:44;;;;;;;3.55;0.47;;;4.40;79.30;;;;;;4992042;28;20478;-68
2022/02/08 02:36:13;;;;;;;5.22;1.30;;;4.40;79.30;;;;;;5023808;28;20414;-68
2022/02/08 02:38:40;;;;;;;4.88;0.85;;;4.40;79.30;;;;;;4949587;28;20097;-68
2022/02/08 02:41:21;;;;;;;2.00;0.55;;;4.40;79.30;;;;;;1027994;28;10023486;-69
2022/02/08 02:43:49;;;;;;;1.80;0.40;;;4.40;79.40;;;;;;4664875;28;10001509;-70
2022/02/08 02:46:17;;;;;;;4.28;0.80;;;4.40;79.40;;;;;;5012475;28;20056;-70
2022/02/08 02:48:44;;;;;;;4.43;0.68;;;4.40;79.40;;;;;;5010455;28;20049;-70
2022/02/08 02:51:14;;;;;;;6.93;1.60;;;4.40;79.50;;;;;;5046263;28;20046;-69
2022/02/08 02:53:44;;;;;;;1.20;0.50;;;4.40;79.40;;;;;;5046419;28;20054;-68
2022/02/08 02:56:16;;;;;;;6.20;0.82;;;4.40;79.40;;;;;;5045041;28;20068;-69
2022/02/08 02:58:45;;;;;;;1.83;0.50;;;4.40;79.30;;;;;;5044958;28;20130;-70
2022/02/08 03:01:23;;;;;;;1.60;0.50;;;4.50;79.20;;;;;;5011279;28;20053;-68
2022/02/08 03:04:05;;;;;;;3.20;0.60;;;4.50;79.10;;;;;;4995471;28;20353;-68
2022/02/08 03:17:59;;;;;;;1.70;0.60;;;4.60;79.00;;;;;;4991156;28;20470;-67
2022/02/08 03:20:27;;;;;;;1.40;0.50;;;4.60;79.00;;;;;;4991341;28;20049;-70
2022/02/08 03:23:00;;;;;;;2.40;0.75;;;4.60;79.10;;;;;;4992615;28;20540;-68
2022/02/08 03:25:28;;;;;;;2.50;0.93;;;4.60;78.90;;;;;;5010722;28;20045;-68
2022/02/08 03:27:58;;;;;;;2.25;0.70;;;4.60;78.80;;;;;;5028374;28;20045;-68
2022/02/08 03:30:27;;;;;;;2.95;1.15;;;4.70;78.90;;;;;;5005962;28;20049;-68
2022/02/08 03:32:55;;;;;;;5.90;1.20;;;4.60;78.90;;;;;;4991207;28;20053;-70
2022/02/08 03:35:22;;;;;;;4.15;0.68;;;4.70;78.80;;;;;;4991245;28;20127;-71
2022/02/08 03:37:58;;;;;;;1.48;0.82;;;4.70;78.80;;;;;;5026449;28;20056;-69
2022/02/08 03:40:37;;;;;;;1.52;0.63;;;4.70;78.80;;;;;;5009288;28;20510;-69
2022/02/08 03:43:16;;;;;;;3.97;0.70;;;4.70;78.90;;;;;;5022359;28;20072;-69
2022/02/08 03:45:49;;;;;;;5.38;0.57;;;4.70;78.80;;;;;;4989860;28;20049;-69
2022/02/08 03:48:20;;;;;;;5.55;0.77;;;4.70;78.80;;;;;;5028629;28;20049;-70
2022/02/08 03:50:52;;;;;;;4.82;1.48;;;4.70;78.80;;;;;;5010871;28;20041;-69
2022/02/08 03:53:20;;;;;;;2.58;0.57;;;4.70;78.70;;;;;;4991662;28;20515;-70
2022/02/08 03:55:48;;;;;;;4.57;0.98;;;4.70;78.80;;;;;;4993926;28;20052;-69
2022/02/08 03:58:15;;;;;;;4.20;1.08;;;4.70;78.80;;;;;;4993897;28;20506;-69
2022/02/08 04:00:54;;;;;;;3.72;0.88;;;4.70;78.90;;;;;;5004553;28;20057;-67
2022/02/08 04:03:26;;;;;;;1.77;0.77;;;4.70;79.00;;;;;;4995177;28;20049;-68
2022/02/08 04:05:54;;;;;;;2.17;0.70;;;4.70;79.00;;;;;;4996651;28;20050;-69
2022/02/08 04:08:22;;;;;;;3.33;0.68;;;4.80;79.00;;;;;;4996579;28;20088;-70
2022/02/08 04:10:49;;;;;;;4.28;0.70;;;4.70;79.10;;;;;;4996866;28;20351;-69
2022/02/08 04:13:21;;;;;;;3.70;0.90;;;4.80;79.20;;;;;;4997733;28;20140;-68
2022/02/08 04:16:02;;;;;;;7.25;1.20;;;4.80;79.20;;;;;;4998989;28;20061;-68
2022/02/08 04:18:43;;;;;;;2.13;0.73;;;4.80;79.30;;;;;;4997061;28;20389;-68
2022/02/08 04:32:42;;;;;;;0.80;0.30;;;4.80;79.50;;;;;;4996869;28;20495;-69
2022/02/08 04:35:36;;;;;;;2.75;0.63;;;4.80;79.60;;;;;;4997557;28;20050;-70
2022/02/08 04:38:15;;;;;;;1.35;0.75;;;4.80;79.70;;;;;;4997264;28;20041;-68
2022/02/08 04:41:04;;;;;;;1.44;0.36;;;4.80;79.80;;;;;;2222418;28;10150904;-69
2022/02/08 04:43:40;;;;;;;2.15;0.63;;;4.80;79.80;;;;;;3603242;28;10001346;-68
2022/02/08 04:46:14;;;;;;;2.30;0.90;;;4.80;79.80;;;;;;4975362;28;20054;-68
2022/02/08 04:48:51;;;;;;;3.58;0.75;;;4.80;79.80;;;;;;4975622;28;20050;-69
2022/02/08 04:51:25;;;;;;;2.17;1.15;;;4.80;79.80;;;;;;4977158;28;20112;-69
2022/02/08 04:54:00;;;;;;;5.00;1.33;;;4.80;79.80;;;;;;4977487;28;20646;-68
2022/02/08 04:56:41;;;;;;;2.83;0.73;;;4.80;79.90;;;;;;4976154;28;20054;-68
2022/02/08 05:02:14;;;;;;;4.22;1.67;;;4.90;79.80;;;;;;4978014;28;20891;-67
2022/02/08 05:27:19;;;;;;;3.30;1.30;;;5.00;79.70;;;;;;4993641;28;20414;-70
2022/02/08 05:35:40;;;;;;;3.08;0.70;;;4.90;80.10;;;;;;4995549;28;20449;-69
2022/02/08 05:44:10;;;;;;;1.15;0.40;;;4.90;80.50;;;;;;4950304;28;20047;-71
2022/02/08 05:49:27;;;;;;;1.83;0.50;;;5.00;81.00;;;;;;4980496;28;20188;-70
2022/02/08 05:54:55;;;;;;;4.80;1.35;;;5.00;81.40;;;;;;4993289;28;20054;-70
2022/02/08 05:57:24;;;;;;;1.48;0.60;;;5.00;81.60;;;;;;4994545;28;20045;-70
2022/02/08 05:59:52;;;;;;;4.40;0.77;;;5.00;81.80;;;;;;4991701;28;20045;-68
2022/02/08 06:02:20;;;;;;;3.67;1.10;;;5.00;82.00;;;;;;4984664;28;20053;-69
2022/02/08 06:05:12;;;;;;;7.68;1.95;;;5.00;82.10;;;;;;5003842;28;20050;-69
2022/02/08 06:07:39;;;;;;;4.57;0.95;;;5.00;82.30;;;;;;4987561;28;20070;-68
2022/02/08 06:10:06;;;;;;;3.72;0.90;;;5.00;82.60;;;;;;4988876;28;20060;-69
2022/02/08 06:12:43;;;;;;;5.22;1.60;;;5.00;82.70;;;;;;4992641;28;20678;-70
2022/02/08 06:15:12;;;;;;;3.40;0.73;;;5.00;82.90;;;;;;4987962;28;20061;-68
2022/02/08 06:17:40;;;;;;;4.55;1.42;;;5.00;83.20;;;;;;5003490;28;20053;-68
2022/02/08 06:20:08;;;;;;;3.47;1.08;;;5.00;83.20;;;;;;4992158;28;20082;-68
2022/02/08 06:22:36;;;;;;;5.25;1.15;;;5.00;83.50;;;;;;4987285;28;20584;-68
2022/02/08 06:25:04;;;;;;;6.88;1.42;;;5.00;83.70;;;;;;4989897;28;20050;-69
2022/02/08 06:27:31;;;;;;;5.05;1.20;;;5.00;83.80;;;;;;4988138;28;20122;-70
2022/02/08 06:30:00;;;;;;;3.90;0.90;;;5.00;84.30;;;;;;5005158;28;20100;-70
2022/02/08 06:32:32;;;;;;;4.75;1.20;;;4.90;84.30;;;;;;4990250;28;20062;-70
2022/02/08 06:35:00;;;;;;;7.88;1.65;;;4.90;84.40;;;;;;4987991;28;20049;-70
2022/02/08 06:37:32;;;;;;;2.33;0.75;;;4.90;84.70;;;;;;4987203;28;20085;-70
2022/02/08 06:39:59;;;;;;;5.10;1.00;;;4.90;85.00;;;;;;4870235;28;21731;-69
2022/02/08 06:42:26;;;;;;;4.13;0.73;;;4.90;85.00;;;;;;322845;28;10022857;-71
2022/02/08 06:44:53;;;;;;;6.15;1.15;;;4.90;85.20;;;;;;5010606;28;20075;-70
2022/02/08 06:47:22;;;;;;;4.95;0.80;;;4.90;85.30;;;;;;5013783;28;20115;-70
2022/02/08 06:49:50;;;;;;;5.05;1.08;;;5.00;85.40;;;;;;5013957;28;20048;-68
2022/02/08 06:52:17;;;;;;;2.63;1.08;;;4.90;85.40;;;;;;5011958;28;20132;-70
2022/02/08 06:54:44;;;;;;;7.80;1.73;;;4.90;85.60;;;;;;5010221;28;20132;-70
2022/02/08 06:57:11;;;;;;;2.28;0.90;;;4.90;85.70;;;;;;5012737;28;20052;-69
2022/02/08 06:59:40;;;;;;;2.72;0.93;;;4.90;85.80;;;;;;5014691;28;20483;-70
2022/02/08 07:02:07;;;;;;;3.10;1.08;;;4.90;85.80;;;;;;5011657;28;20081;-69
2022/02/08 07:04:36;;;;;;;3.13;1.50;;;4.90;85.80;;;;;;5012604;28;20108;-70
2022/02/08 07:07:03;;;;;;;6.80;1.17;;;4.90;85.90;;;;;;5013075;28;20554;-70
2022/02/08 07:09:30;;;;;;;6.28;1.58;;;5.00;85.90;;;;;;5011615;28;20511;-69
2022/02/08 07:11:58;;;;;;;4.95;1.70;;;4.90;85.90;;;;;;5014555;28;20045;-69
2022/02/08 07:14:31;;;;;;;7.38;2.13;;;5.00;85.90;;;;;;5014275;28;20631;-71
2022/02/08 07:16:58;;;;;;;4.28;1.00;;;5.00;86.00;;;;;;5016652;28;20132;-71
2022/02/08 07:19:26;;;;;;;2.38;1.00;;;5.00;86.00;;;;;;5014966;28;20093;-71
2022/02/08 07:21:55;;;;;;;4.82;2.45;;;5.00;86.00;;;;;;5014808;28;20049;-70
2022/02/08 07:24:22;;;;;;;8.70;1.55;;;5.00;86.10;;;;;;5015524;28;20049;-69
2022/02/08 07:26:51;;;;;;;3.95;0.98;;;5.00;86.20;;;;;;5014623;28;20502;-68
2022/02/08 07:29:19;;;;;;;8.65;3.65;;;5.00;86.30;;;;;;5014863;28;20495;-70
2022/02/08 07:31:52;;;;;;;4.68;1.23;;;5.00;86.30;;;;;;5016022;28;20048;-71
2022/02/08 07:34:23;;;;;;;1.92;0.90;;;5.00;86.20;;;;;;5016049;28;20045;-69
2022/02/08 07:36:57;;;;;;;5.57;1.70;;;5.00;86.30;;;;;;5015901;28;20041;-71
2022/02/08 07:39:37;;;;;;;8.45;1.15;;;5.00;86.40;;;;;;5016280;28;20056;-70
2022/02/08 07:42:04;;;;;;;7.80;1.75;;;5.00;86.30;;;;;;5016260;28;20045;-70
2022/02/08 07:44:32;;;;;;;7.55;2.20;;;5.10;86.40;;;;;;4993274;28;21971;-69
2022/02/08 07:47:12;;;;;;;10.45;2.33;;;5.10;86.40;;;;;;4987367;28;20510;-69
2022/02/08 07:49:40;;;;;;;4.03;1.52;;;5.10;86.40;;;;;;5014483;28;20120;-69
2022/02/08 07:52:08;;;;;;;4.32;1.30;;;5.10;86.60;;;;;;5013897;28;20095;-69
2022/02/08 07:54:38;;;;;;;8.43;1.40;;;5.10;86.70;;;;;;5012623;28;20053;-69
2022/02/08 07:57:05;;;;;;;8.77;1.60;;;5.10;86.70;;;;;;5010976;28;20612;-71
2022/02/08 07:59:32;;;;;;;5.82;1.77;;;5.10;86.60;;;;;;5006634;28;20122;-69
2022/02/08 08:01:59;;;;;;;4.50;1.45;;;5.20;86.60;;;;;;5007724;28;20057;-70
2022/02/08 08:04:29;;;;;;;4.43;1.33;;;5.20;86.60;;;;;;5007727;28;20041;-69
2022/02/08 08:06:56;;;;;;;10.10;1.95;;;5.10;86.70;;;;;;5006986;28;20073;-69
2022/02/08 08:09:23;;;;;;;10.52;2.38;;;5.20;86.70;;;;;;5009825;28;20065;-69
2022/02/08 08:11:52;;;;;;;5.82;1.50;;;5.20;86.60;;;;;;5014484;28;20609;-70
2022/02/08 08:14:23;;;;;;;5.25;1.13;;;5.20;86.60;;;;;;5010392;28;20055;-70
2022/02/08 08:16:55;;;;;;;4.80;1.80;;;5.20;86.80;;;;;;5011056;28;20046;-70
2022/02/08 08:19:36;;;;;;;3.78;1.58;;;5.20;86.90;;;;;;4992369;28;20049;-69
2022/02/08 08:22:04;;;;;;;7.43;1.42;;;5.20;87.00;;;;;;5011407;28;20068;-72
2022/02/08 08:24:31;;;;;;;6.82;1.98;;;5.20;86.80;;;;;;5006717;28;20176;-69
2022/02/08 08:26:59;;;;;;;8.27;1.60;;;5.20;87.00;;;;;;5006668;28;20504;-70
2022/02/08 08:29:26;;;;;;;7.95;2.42;;;5.20;87.00;;;;;;5007163;28;20049;-70
2022/02/08 08:31:53;;;;;;;6.50;1.30;;;5.20;86.90;;;;;;5008025;28;21550;-70
2022/02/08 08:34:20;;;;;;;4.70;1.45;;;5.20;86.90;;;;;;5010469;28;20187;-68
2022/02/08 08:36:50;;;;;;;9.15;1.77;;;5.30;86.90;;;;;;5010060;28;21734;-71
2022/02/08 08:39:21;;;;;;;6.93;2.37;;;5.30;86.90;;;;;;4948642;28;20332;-68
2022/02/08 08:45:07;;;;;;;4.13;1.60;;;5.30;86.70;;;;;;3630649;28;10001214;-69
2022/02/08 08:50:32;;;;;;;3.83;1.13;;;5.30;86.70;;;;;;5016609;28;20040;-70
2022/02/08 08:52:59;;;;;;;5.00;1.52;;;5.40;86.70;;;;;;5016454;28;20124;-69
2022/02/08 08:55:26;;;;;;;4.97;1.23;;;5.40;86.70;;;;;;5015957;28;20120;-71
2022/02/08 08:57:55;;;;;;;4.95;1.15;;;5.40;86.70;;;;;;5013440;28;20068;-71
2022/02/08 09:00:22;;;;;;;4.10;1.10;;;5.40;86.60;;;;;;5008653;28;20042;-71
2022/02/08 09:02:49;;;;;;;5.68;1.48;;;5.40;86.60;;;;;;5011817;28;20048;-71
2022/02/08 09:05:18;;;;;;;7.15;1.92;;;5.40;86.70;;;;;;5008807;28;20167;-71
2022/02/08 09:07:45;;;;;;;5.68;1.48;;;5.40;86.70;;;;;;5010633;28;20044;-70
2022/02/08 09:10:16;;;;;;;7.18;1.67;;;5.50;86.70;;;;;;5009777;28;20049;-70
2022/02/08 09:13:10;;;;;;;3.55;1.50;;;5.50;86.70;;;;;;5016348;28;20491;-71
2022/02/08 09:15:52;;;;;;;6.97;2.13;;;5.50;86.70;;;;;;5014180;28;22398;-71
2022/02/08 09:18:39;;;;;;;5.72;1.98;;;5.60;86.80;;;;;;5016613;28;20045;-71
2022/02/08 09:21:30;;;;;;;5.43;1.90;;;5.60;86.80;;;;;;5014394;28;20407;-69
2022/02/08 09:27:05;;;;;;;3.35;1.48;;;5.60;87.00;;;;;;5013276;28;20614;-71
2022/02/08 09:29:42;;;;;;;2.90;1.85;;;5.60;87.10;;;;;;5014851;28;20068;-71
2022/02/08 09:32:16;;;;;;;6.65;1.65;;;5.60;87.10;;;;;;5009196;28;20377;-71
2022/02/08 09:34:45;;;;;;;4.93;2.75;;;5.60;87.10;;;;;;5009530;28;20106;-70
2022/02/08 09:37:14;;;;;;;6.22;1.55;;;5.60;87.10;;;;;;5012233;28;20962;-71
2022/02/08 09:39:43;;;;;;;4.22;1.42;;;5.70;87.10;;;;;;5009901;28;20081;-69
2022/02/08 09:42:11;;;;;;;7.03;2.05;;;5.60;87.00;;;;;;5010782;28;20044;-68
2022/02/08 09:44:38;;;;;;;4.88;1.77;;;5.70;86.90;;;;;;5011080;28;20049;-70
2022/02/08 09:47:09;;;;;;;7.07;1.80;;;5.70;86.90;;;;;;5016050;28;20136;-71
2022/02/08 09:49:42;;;;;;;5.28;1.77;;;5.70;86.90;;;;;;5015813;28;20045;-70
2022/02/08 09:52:10;;;;;;;3.63;1.25;;;5.70;87.00;;;;;;5014803;28;20037;-70
2022/02/08 09:54:38;;;;;;;2.42;1.33;;;5.70;87.10;;;;;;5015738;28;20107;-70
2022/02/08 09:57:05;;;;;;;10.98;3.22;;;5.70;87.20;;;;;;5012054;28;20442;-70
2022/02/08 09:59:34;;;;;;;4.05;1.60;;;5.70;87.10;;;;;;5012134;28;20566;-69
2022/02/08 10:02:02;;;;;;;6.28;1.10;;;5.80;87.00;;;;;;5007894;28;20176;-70
2022/02/08 10:04:31;;;;;;;4.30;1.63;;;5.80;86.90;;;;;;5008715;28;20052;-71
2022/02/08 10:07:11;;;;;;;3.97;1.70;;;5.80;87.00;;;;;;5010606;28;20045;-70
2022/02/08 10:09:38;;;;;;;3.15;1.20;;;5.80;87.00;;;;;;5007663;28;20165;-70
2022/02/08 10:12:08;;;;;;;5.75;1.48;;;5.80;86.90;;;;;;5008483;28;20067;-71
2022/02/08 10:14:51;;;;;;;8.23;1.98;;;5.90;86.80;;;;;;5010526;28;20495;-71
2022/02/08 10:21:13;;;;;;;3.17;1.88;;;6.00;86.80;;;;;;5012196;28;20033;-71
2022/02/08 10:23:18;;;;;;;3.83;1.50;;;6.00;86.90;;;;;;5010140;28;20510;-72
2022/02/08 10:25:58;;;;;;;5.30;1.77;;;6.00;86.90;;;;;;5007165;28;20051;-72
2022/02/08 10:28:32;;;;;;;2.97;1.50;;;6.00;86.90;;;;;;5006793;28;20609;-71
2022/02/08 10:31:22;;;;;;;8.75;1.75;;;6.10;87.00;;;;;;5010007;28;20046;-71
2022/02/08 10:39:20;;;;;;;4.47;1.30;;;6.10;86.70;;;;;;4944576;28;21147;-70
2022/02/08 10:41:59;;;;;;;3.20;1.00;;;6.20;86.70;;;;;;2403681;28;10023830;-68
2022/02/08 10:44:34;;;;;;;3.13;1.25;;;6.20;86.50;;;;;;3284065;28;10001203;-71
2022/02/08 10:47:01;;;;;;;3.45;1.30;;;6.30;86.50;;;;;;5014945;28;20132;-71
2022/02/08 10:49:33;;;;;;;4.63;1.67;;;6.30;86.50;;;;;;5013768;28;20049;-70
2022/02/08 10:52:03;;;;;;;4.68;1.50;;;6.40;86.40;;;;;;5012356;28;20388;-70
2022/02/08 10:54:36;;;;;;;3.93;1.60;;;6.30;86.40;;;;;;5016893;28;20045;-70
2022/02/08 10:57:12;;;;;;;4.40;1.33;;;6.40;86.40;;;;;;5009283;28;20859;-71
2022/02/08 10:59:45;;;;;;;8.98;1.85;;;6.40;86.30;;;;;;5008786;28;20119;-72
2022/02/08 11:02:20;;;;;;;3.95;1.60;;;6.40;86.40;;;;;;5010293;28;20063;-70
2022/02/08 11:04:52;;;;;;;9.57;3.03;;;6.50;86.50;;;;;;5008393;28;20049;-70
2022/02/08 11:07:43;;;;;;;8.85;1.85;;;6.50;86.20;;;;;;5010949;28;20160;-71
2022/02/08 11:10:26;;;;;;;8.38;2.10;;;6.60;86.20;;;;;;5008820;28;20505;-71
2022/02/08 11:13:00;;;;;;;6.43;1.27;;;6.60;86.20;;;;;;5015598;28;20050;-71
2022/02/08 11:15:41;;;;;;;3.85;1.58;;;6.60;86.10;;;;;;5011308;28;20048;-70
2022/02/08 11:21:17;;;;;;;4.68;1.83;;;6.70;86.00;;;;;;5010531;28;20052;-71
2022/02/08 11:23:58;;;;;;;3.70;1.25;;;6.80;85.90;;;;;;4990743;28;20519;-70
2022/02/08 11:26:33;;;;;;;7.28;1.45;;;6.90;85.60;;;;;;5007769;28;20053;-71
2022/02/08 11:29:10;;;;;;;2.17;1.20;;;6.80;85.40;;;;;;5010636;28;20045;-70
2022/02/08 11:31:42;;;;;;;6.72;0.95;;;6.80;85.20;;;;;;5011225;28;20079;-71
2022/02/08 11:39:02;;;;;;;3.00;1.60;;;6.90;85.30;;;;;;5009624;28;20617;-72
2022/02/08 11:40:26;;;;;;;4.93;2.30;;;6.90;85.30;;;;;;5005996;28;21397;-71
2022/02/08 11:43:29;;;;;;;;;;;6.90;85.30;;;;;;5012205;28;20191;-70
2022/02/08 11:46:02;;;;;;;6.38;2.35;;;6.90;85.30;;;;;;5007994;28;19929;-70
2022/02/08 11:48:47;;;;;;;3.47;1.20;;;7.00;85.10;;;;;;5011398;28;20041;-71
2022/02/08 11:51:35;;;;;;;7.28;1.55;;;7.00;85.10;;;;;;5012238;28;20068;-70
2022/02/08 11:54:05;;;;;;;3.17;1.10;;;6.90;85.10;;;;;;5010802;28;20034;-71
2022/02/08 11:56:51;;;;;;;2.95;1.30;;;7.00;85.20;;;;;;5009643;28;20124;-70
2022/02/08 11:59:29;;;;;;;7.60;1.70;;;7.00;85.30;;;;;;5007088;28;20148;-71
2022/02/08 12:02:37;;;;;;;3.38;1.23;;;7.00;85.30;;;;;;5003349;28;20046;-71
2022/02/08 12:05:05;;;;;;;5.53;1.50;;;7.10;85.40;;;;;;5006363;28;20623;-70
2022/02/08 12:07:34;;;;;;;;;;;7.10;85.30;;;;;;5005345;28;20075;-71
2022/02/08 12:10:15;;;;;;;8.38;1.60;;;7.10;85.30;;;;;;5010610;28;20020;-71
2022/02/08 12:13:06;;;;;;;4.00;1.30;;;7.10;85.30;;;;;;5009357;28;20103;-70
2022/02/08 12:32:40;;;;;;;6.50;1.17;;;7.30;85.30;;;;;;5011535;28;20123;-72
2022/02/08 12:35:28;;;;;;;3.78;0.95;;;7.30;85.10;;;;;;5011772;28;20498;-73
2022/02/08 12:50:00;;;;;;;2.45;1.10;;;7.40;85.20;;;;;;5015599;28;20060;-71
2022/02/08 12:58:07;;;;;;;2.65;0.90;;;7.50;85.20;;;;;;5009594;28;20073;-71
2022/02/08 13:00:43;;;;;;;4.15;1.02;;;7.50;85.10;;;;;;5009550;28;20060;-70
2022/02/08 13:03:23;;;;;;;6.10;1.73;;;7.50;85.30;;;;;;5011102;28;20053;-70
2022/02/08 13:14:58;;;;;;;2.42;1.08;;;7.40;85.20;;;;;;5014398;28;20522;-70
2022/02/08 13:24:45;;;;;;;5.70;1.10;;;7.40;85.30;;;;;;5009207;28;20080;-70
2022/02/08 14:01:47;;;;;;;1.13;0.65;;;7.40;85.90;;;;;;5014282;28;20127;-70
2022/02/08 14:07:02;;;;;;;3.20;0.82;;;7.40;85.90;;;;;;5017252;28;20471;-72
2022/02/08 14:09:41;;;;;;;2.00;0.77;;;7.40;86.00;;;;;;5015895;28;20052;-71
2022/02/08 14:12:48;;;;;;;1.75;0.90;;;7.40;85.90;;;;;;5013893;28;20051;-72
2022/02/08 14:18:14;;;;;;;3.47;1.40;;;7.40;86.00;;;;;;5013817;28;20057;-71
2022/02/08 14:21:08;;;;;;;3.28;1.40;;;7.40;86.10;;;;;;5017069;28;21509;-71
2022/02/08 14:23:53;;;;;;;3.28;0.90;;;7.40;86.00;;;;;;5016388;28;20124;-70
2022/02/08 14:32:00;;;;;;;2.83;1.27;;;7.40;85.80;;;;;;5012759;28;20513;-70
2022/02/08 14:35:00;;;;;;;1.98;1.00;;;7.40;85.80;;;;;;5015665;28;20044;-72
2022/02/08 15:05:39;;;;;;;2.03;0.85;;;7.40;85.50;;;;;;5008676;28;20667;-71
2022/02/08 15:08:19;;;;;;;2.95;1.27;;;7.50;85.50;;;;;;5014391;28;20648;-70
2022/02/08 15:10:50;;;;;;;5.20;1.48;;;7.40;85.60;;;;;;5011741;28;20577;-70
2022/02/08 15:13:21;;;;;;;2.10;1.00;;;7.40;85.60;;;;;;5007285;28;20045;-70
2022/02/08 15:16:03;;;;;;;;;;;7.30;85.60;;;;;;5008911;28;20068;-69
2022/02/08 15:18:32;;;;;;;4.50;1.23;;;7.40;85.60;;;;;;5010971;28;19929;-71
2022/02/08 15:21:01;;;;;;;2.72;0.90;;;7.30;85.70;;;;;;5008477;28;20048;-72
2022/02/08 15:23:29;;;;;;;3.58;1.30;;;7.40;85.70;;;;;;5011180;28;20414;-70
2022/02/08 15:25:58;;;;;;;3.05;1.25;;;7.40;85.70;;;;;;5009284;28;20135;-70
2022/02/08 15:28:27;;;;;;;4.85;1.85;;;7.40;85.70;;;;;;5008765;28;20081;-70
2022/02/08 15:30:55;;;;;;;5.03;1.40;;;7.30;85.80;;;;;;5012387;28;20116;-70
2022/02/08 15:33:24;;;;;;;32.13;10.77;;;7.30;85.80;;;;;;5013803;28;20146;-71
2022/02/08 15:35:53;;;;;;;33.70;14.85;;;7.30;85.80;;;;;;5013169;28;20041;-72
2022/02/08 15:38:21;;;;;;;23.63;10.55;;;7.30;85.80;;;;;;5010210;28;20230;-71
2022/02/08 15:40:48;;;;;;;15.70;7.45;;;7.30;85.70;;;;;;5013577;28;20452;-70
2022/02/08 15:43:15;;;;;;;11.35;6.35;;;7.30;85.80;;;;;;5010365;28;20459;-70
2022/02/08 15:45:49;;;;;;;9.07;5.13;;;7.40;85.80;;;;;;5013796;28;20528;-71
2022/02/08 15:48:20;;;;;;;9.65;3.88;;;7.30;85.90;;;;;;5011768;28;20194;-70
2022/02/08 15:50:56;;;;;;;4.40;2.40;;;7.30;85.90;;;;;;5017030;28;20046;-73
2022/02/08 16:07:08;;;;;;;3.45;1.50;;;7.40;86.00;;;;;;5017183;28;20095;-71
2022/02/08 16:09:42;;;;;;;3.03;1.58;;;7.40;85.90;;;;;;5009390;28;20033;-71
2022/02/08 16:15:05;;;;;;;2.47;1.42;;;7.30;86.00;;;;;;5012151;28;20277;-70
2022/02/08 16:17:39;;;;;;;3.42;1.50;;;7.40;86.10;;;;;;5011808;28;20045;-71
2022/02/08 16:20:16;;;;;;;6.00;1.77;;;7.40;86.10;;;;;;5011757;28;20053;-71
2022/02/08 16:25:37;;;;;;;3.40;1.65;;;7.40;86.30;;;;;;5011504;28;20046;-71
2022/02/08 16:28:20;;;;;;;3.20;1.77;;;7.40;86.20;;;;;;5010447;28;20052;-71
2022/02/08 16:31:18;;;;;;;6.13;2.38;;;7.40;86.30;;;;;;5011945;28;20073;-70
2022/02/08 16:53:33;;;;;;;8.32;4.82;;;7.30;87.30;;;;;;5106439;27;20051;-70
2022/02/08 16:56:13;;;;;;;7.90;3.67;;;7.30;87.40;;;;;;5102964;27;20141;-72
2022/02/08 16:58:47;;;;;;;;;;;7.30;87.40;;;;;;5103651;28;20440;-68
2022/02/08 17:01:16;;;;;;;6.72;3.03;;;7.30;87.50;;;;;;5101796;28;19924;-71
2022/02/08 17:03:48;;;;;;;12.60;6.60;;;7.30;87.60;;;;;;5103980;28;20104;-74
2022/02/08 17:06:19;;;;;;;11.20;6.07;;;7.30;87.70;;;;;;5104354;28;20055;-70
2022/02/08 17:08:48;;;;;;;14.57;6.82;;;7.30;87.80;;;;;;5105044;27;20765;-71
2022/02/08 17:11:23;;;;;;;15.60;6.53;;;7.30;87.80;;;;;;5104266;28;20039;-71
2022/02/08 17:14:16;;;;;;;10.80;5.47;;;7.30;87.80;;;;;;5106097;28;20163;-71
2022/02/08 17:16:59;;;;;;;12.95;5.93;;;7.30;87.90;;;;;;5106556;28;20154;-71
2022/02/08 17:47:46;;;;;;;8.52;4.35;;;7.30;88.00;;;;;;5041243;28;20078;-71
2022/02/08 17:50:15;;;;;;;13.50;6.85;;;7.30;88.00;;;;;;5087871;28;20097;-72
2022/02/08 17:52:43;;;;;;;10.25;6.28;;;7.30;88.00;;;;;;5083148;28;20135;-70
2022/02/08 17:55:12;;;;;;;12.60;6.68;;;7.30;88.00;;;;;;5086351;28;20146;-71
2022/02/08 17:57:40;;;;;;;9.47;6.30;;;7.30;88.00;;;;;;5086231;28;20043;-71
2022/02/08 18:00:10;;;;;;;15.15;6.63;;;7.30;88.00;;;;;;5084658;28;20478;-68
2022/02/08 18:02:39;;;;;;;15.10;7.40;;;7.30;87.90;;;;;;5088038;28;20770;-71
2022/02/08 18:05:08;;;;;;;17.03;8.43;;;7.30;87.90;;;;;;5086773;28;20051;-71
2022/02/08 18:07:36;;;;;;;16.63;9.27;;;7.30;87.90;;;;;;5087503;28;20036;-72